createdAt,value
2019-01-09T00:01:57.200Z,2.60
2019-01-09T00:04:26.912Z,2.83
2019-01-09T00:06:56.559Z,2.60
2019-01-09T00:09:26.293Z,2.13
2019-01-09T00:11:55.956Z,1.53
2019-01-09T00:14:25.632Z,2.47
2019-01-09T00:16:55.279Z,1.90
2019-01-09T00:19:25.030Z,2.50
2019-01-09T00:21:54.709Z,1.80
2019-01-09T00:24:24.371Z,1.87
2019-01-09T00:26:54.037Z,3.60
2019-01-09T00:29:23.755Z,2.33
2019-01-09T00:31:53.501Z,3.47
2019-01-09T00:34:23.209Z,2.57
2019-01-09T00:36:52.988Z,2.57
2019-01-09T00:39:22.703Z,2.73
2019-01-09T00:41:52.375Z,2.23
2019-01-09T00:44:22.016Z,1.80
2019-01-09T00:46:51.696Z,4.43
2019-01-09T00:49:21.423Z,1.63
2019-01-09T00:51:51.076Z,2.80
2019-01-09T00:54:20.721Z,2.23
2019-01-09T00:56:50.396Z,2.97
2019-01-09T00:59:20.072Z,3.10
2019-01-09T01:01:56.473Z,2.20
2019-01-09T01:05:01.478Z,2.23
2019-01-09T01:08:04.942Z,2.13
2019-01-09T01:11:31.145Z,1.63
2019-01-09T01:14:36.593Z,2.27
2019-01-09T01:17:58.492Z,3.07
2019-01-09T01:20:54.007Z,2.63
2019-01-09T01:23:57.954Z,2.73
2019-01-09T01:27:08.900Z,2.10
2019-01-09T01:30:37.624Z,3.07
2019-01-09T01:33:33.631Z,1.60
2019-01-09T01:36:49.215Z,1.67
2019-01-09T01:39:51.100Z,2.00
2019-01-09T01:43:04.845Z,2.40
2019-01-09T01:46:30.622Z,2.40
2019-01-09T01:49:25.980Z,1.97
2019-01-09T01:52:35.012Z,2.70
2019-01-09T01:56:00.328Z,3.87
2019-01-09T01:59:03.884Z,2.37
2019-01-09T02:01:58.715Z,3.57
2019-01-09T02:04:57.111Z,1.63
2019-01-09T02:07:58.800Z,3.23
2019-01-09T02:11:06.369Z,2.60
2019-01-09T02:13:52.154Z,1.80
2019-01-09T02:17:04.360Z,1.67
2019-01-09T02:19:45.436Z,3.20
2019-01-09T02:23:00.016Z,1.93
2019-01-09T02:25:56.333Z,2.83
2019-01-09T02:28:53.385Z,1.20
2019-01-09T02:32:09.770Z,2.50
2019-01-09T02:34:39.500Z,2.17
2019-01-09T02:37:09.598Z,1.90
2019-01-09T02:39:39.284Z,2.13
2019-01-09T02:42:08.938Z,1.40
2019-01-09T02:44:38.580Z,2.20
2019-01-09T02:47:08.254Z,2.40
2019-01-09T02:49:37.933Z,1.70
2019-01-09T02:52:07.604Z,2.40
2019-01-09T02:54:37.260Z,1.63
2019-01-09T02:57:06.930Z,2.77
2019-01-09T02:59:36.679Z,2.03
2019-01-09T03:02:06.339Z,1.13
2019-01-09T03:04:35.997Z,1.87
2019-01-09T03:07:05.660Z,1.53
2019-01-09T03:09:35.449Z,1.87
2019-01-09T03:12:05.118Z,2.40
2019-01-09T03:14:34.798Z,1.87
2019-01-09T03:17:04.468Z,2.23
2019-01-09T03:19:34.155Z,2.37
2019-01-09T03:22:03.825Z,1.43
2019-01-09T03:24:33.479Z,2.30
2019-01-09T03:27:03.119Z,2.10
2019-01-09T03:29:33.817Z,1.53
2019-01-09T03:32:03.481Z,1.77
2019-01-09T03:34:33.210Z,1.90
2019-01-09T03:37:02.864Z,1.53
2019-01-09T03:39:32.608Z,1.10
2019-01-09T03:42:02.328Z,1.77
2019-01-09T03:44:31.993Z,2.00
2019-01-09T03:47:01.639Z,1.67
2019-01-09T03:49:31.393Z,1.37
2019-01-09T03:52:01.059Z,3.00
2019-01-09T03:54:30.715Z,1.40
2019-01-09T03:57:00.373Z,2.73
2019-01-09T03:59:30.116Z,1.90
2019-01-09T04:01:59.781Z,1.90
2019-01-09T04:04:29.448Z,1.90
2019-01-09T04:06:59.130Z,1.47
2019-01-09T04:09:29.056Z,2.23
2019-01-09T04:11:58.883Z,1.43
2019-01-09T04:14:28.766Z,1.73
2019-01-09T04:16:58.827Z,2.87
2019-01-09T04:19:28.833Z,3.13
2019-01-09T04:21:58.613Z,1.53
2019-01-09T04:24:28.516Z,1.97
2019-01-09T04:27:06.092Z,2.07
2019-01-09T04:29:36.959Z,1.97
2019-01-09T04:32:06.949Z,4.57
2019-01-09T04:34:36.902Z,3.10
2019-01-09T04:37:06.904Z,4.93
2019-01-09T04:39:36.880Z,1.90
2019-01-09T04:42:06.862Z,1.90
2019-01-09T04:44:36.924Z,2.40
2019-01-09T04:47:06.639Z,1.97
2019-01-09T04:49:37.344Z,1.90
2019-01-09T04:52:07.034Z,6.47
2019-01-09T04:54:36.777Z,1.37
2019-01-09T04:57:06.423Z,2.37
2019-01-09T04:59:36.198Z,4.20
2019-01-09T05:02:05.880Z,5.13
2019-01-09T05:04:35.527Z,6.07
2019-01-09T05:07:05.200Z,2.17
2019-01-09T05:09:34.997Z,31.23
2019-01-09T05:12:04.670Z,23.13
2019-01-09T05:14:34.355Z,63.47
2019-01-09T05:17:04.030Z,121.43
2019-01-09T05:19:33.781Z,120.63
2019-01-09T05:22:03.464Z,138.50
2019-01-09T05:24:33.145Z,197.07
2019-01-09T05:27:02.806Z,226.17
2019-01-09T05:29:32.522Z,210.83
2019-01-09T05:32:02.239Z,138.27
2019-01-09T05:34:32.081Z,139.37
2019-01-09T05:37:09.446Z,211.77
2019-01-09T05:39:39.553Z,254.40
2019-01-09T05:42:04.967Z,306.13
2019-01-09T05:44:35.178Z,252.10
2019-01-09T05:47:04.888Z,329.50
2019-01-09T05:49:34.602Z,360.53
2019-01-09T05:52:04.294Z,420.53
2019-01-09T05:54:33.976Z,449.30
2019-01-09T05:57:03.704Z,415.83
2019-01-09T05:59:33.436Z,460.50
2019-01-09T06:02:03.127Z,427.77
2019-01-09T06:04:32.835Z,470.93
2019-01-09T06:07:02.509Z,474.27
2019-01-09T06:09:32.337Z,462.33
2019-01-09T06:12:02.140Z,483.23
2019-01-09T06:14:31.857Z,514.80
2019-01-09T06:17:01.509Z,517.90
2019-01-09T06:19:31.339Z,555.60
2019-01-09T06:22:01.009Z,558.33
2019-01-09T06:24:30.701Z,542.23
2019-01-09T06:27:00.404Z,567.73
2019-01-09T06:29:30.143Z,565.17
2019-01-09T06:31:59.820Z,603.70
2019-01-09T06:34:29.581Z,583.83
2019-01-09T06:36:59.341Z,561.40
2019-01-09T06:39:29.104Z,609.47
2019-01-09T06:41:58.765Z,621.83
2019-01-09T06:44:28.510Z,619.80
2019-01-09T06:46:58.220Z,646.93
2019-01-09T06:49:28.203Z,626.97
2019-01-09T06:51:57.859Z,558.03
2019-01-09T06:54:27.611Z,601.27
2019-01-09T06:56:57.442Z,642.73
2019-01-09T06:59:27.211Z,603.50
2019-01-09T07:01:56.957Z,641.03
2019-01-09T07:04:26.848Z,627.87
2019-01-09T07:06:56.834Z,616.30
2019-01-09T07:09:26.548Z,657.23
2019-01-09T07:11:56.232Z,632.93
2019-01-09T07:14:25.979Z,578.07
2019-01-09T07:16:55.758Z,597.43
2019-01-09T07:19:25.522Z,623.10
2019-01-09T07:21:55.417Z,637.27
2019-01-09T07:24:25.053Z,585.97
2019-01-09T07:26:54.741Z,589.50
2019-01-09T07:29:24.533Z,549.77
2019-01-09T07:31:54.220Z,543.13
2019-01-09T07:34:23.893Z,537.93
2019-01-09T07:36:53.680Z,535.37
2019-01-09T07:39:23.440Z,517.07
2019-01-09T07:41:53.117Z,551.23
2019-01-09T07:44:22.793Z,533.63
2019-01-09T07:46:52.522Z,631.23
2019-01-09T07:49:23.281Z,622.57
2019-01-09T07:51:53.028Z,592.40
2019-01-09T07:54:22.727Z,576.43
2019-01-09T07:56:52.394Z,652.93
2019-01-09T07:59:23.079Z,583.13
2019-01-09T08:01:52.787Z,672.17
2019-01-09T08:04:22.504Z,607.90
2019-01-09T08:06:52.197Z,613.60
2019-01-09T08:09:21.992Z,576.23
2019-01-09T08:11:51.732Z,534.53
2019-01-09T08:14:21.402Z,560.73
2019-01-09T08:16:51.071Z,550.30
2019-01-09T08:19:21.049Z,575.73
2019-01-09T08:21:50.748Z,553.00
2019-01-09T08:24:20.448Z,564.27
2019-01-09T08:26:50.169Z,550.40
2019-01-09T08:29:21.033Z,546.27
2019-01-09T08:31:50.876Z,607.57
2019-01-09T08:34:20.576Z,595.20
2019-01-09T08:36:50.343Z,567.30
2019-01-09T08:39:20.189Z,624.00
2019-01-09T08:41:50.067Z,679.80
2019-01-09T08:44:19.884Z,581.57
2019-01-09T08:46:49.724Z,626.87
2019-01-09T08:49:20.512Z,605.33
2019-01-09T08:51:50.332Z,618.60
2019-01-09T08:54:20.354Z,649.13
2019-01-09T08:56:50.082Z,631.77
2019-01-09T08:59:19.885Z,659.93
2019-01-09T09:01:49.584Z,604.77
2019-01-09T09:04:19.362Z,629.70
2019-01-09T09:06:49.209Z,683.57
2019-01-09T09:09:19.943Z,681.93
2019-01-09T09:11:49.655Z,676.63
2019-01-09T09:14:19.319Z,706.10
2019-01-09T09:16:49.083Z,677.17
2019-01-09T09:19:18.822Z,640.60
2019-01-09T09:21:48.503Z,677.70
2019-01-09T09:24:18.179Z,679.90
2019-01-09T09:26:50.925Z,706.77
2019-01-09T09:29:20.649Z,666.57
2019-01-09T09:31:50.340Z,659.30
2019-01-09T09:34:20.035Z,667.60
2019-01-09T09:36:49.821Z,673.10
2019-01-09T09:39:19.600Z,688.43
2019-01-09T09:41:49.695Z,657.37
2019-01-09T09:44:19.360Z,704.63
2019-01-09T09:46:49.147Z,657.50
2019-01-09T09:49:18.961Z,698.90
2019-01-09T09:51:48.717Z,645.17
2019-01-09T09:54:18.469Z,710.73
2019-01-09T09:56:48.186Z,693.40
2019-01-09T09:59:17.994Z,707.33
2019-01-09T10:01:47.786Z,674.17
2019-01-09T10:04:17.532Z,683.47
2019-01-09T10:06:47.231Z,696.37
2019-01-09T10:09:17.259Z,681.13
2019-01-09T10:11:46.949Z,676.27
2019-01-09T10:14:16.668Z,707.93
2019-01-09T10:16:46.420Z,709.17
2019-01-09T10:19:16.185Z,643.00
2019-01-09T10:21:45.871Z,692.13
2019-01-09T10:24:15.661Z,638.87
2019-01-09T10:26:45.367Z,652.60
2019-01-09T10:29:15.167Z,675.43
2019-01-09T10:31:44.894Z,696.03
2019-01-09T10:34:14.612Z,682.00
2019-01-09T10:36:44.357Z,690.57
2019-01-09T10:39:14.144Z,674.33
2019-01-09T10:41:43.815Z,688.77
2019-01-09T10:44:18.770Z,642.43
2019-01-09T10:46:44.972Z,680.63
2019-01-09T10:49:14.806Z,668.47
2019-01-09T10:51:44.542Z,663.17
2019-01-09T10:54:14.250Z,651.13
2019-01-09T10:56:43.947Z,625.37
2019-01-09T10:59:13.697Z,664.80
2019-01-09T11:01:43.380Z,674.17
2019-01-09T11:04:13.070Z,649.17
2019-01-09T11:06:42.784Z,667.47
2019-01-09T11:09:12.635Z,653.20
2019-01-09T11:11:42.345Z,650.63
2019-01-09T11:14:12.054Z,642.23
2019-01-09T11:16:42.109Z,673.47
2019-01-09T11:19:12.010Z,650.50
2019-01-09T11:21:41.682Z,603.83
2019-01-09T11:24:11.385Z,631.27
2019-01-09T11:26:41.068Z,678.03
2019-01-09T11:29:11.111Z,642.73
2019-01-09T11:31:40.800Z,629.57
2019-01-09T11:34:10.533Z,646.63
2019-01-09T11:36:40.213Z,668.73
2019-01-09T11:39:10.864Z,658.90
2019-01-09T11:41:40.651Z,622.13
2019-01-09T11:44:10.316Z,625.07
2019-01-09T11:46:40.008Z,645.23
2019-01-09T11:49:09.799Z,636.60
2019-01-09T11:51:39.457Z,609.27
2019-01-09T11:54:09.168Z,617.17
2019-01-09T11:56:38.915Z,652.17
2019-01-09T11:59:09.172Z,638.80
2019-01-09T12:01:39.283Z,627.50
2019-01-09T12:04:08.920Z,638.87
2019-01-09T12:06:38.642Z,619.43
2019-01-09T12:09:10.259Z,608.07
2019-01-09T12:11:39.933Z,620.13
2019-01-09T12:14:09.684Z,644.53
2019-01-09T12:16:39.451Z,604.77
2019-01-09T12:19:09.228Z,612.07
2019-01-09T12:21:38.948Z,613.27
2019-01-09T12:24:08.648Z,619.17
2019-01-09T12:26:38.400Z,592.03
2019-01-09T12:29:08.181Z,600.27
2019-01-09T12:31:37.884Z,631.97
2019-01-09T12:34:07.625Z,597.43
2019-01-09T12:36:37.343Z,594.73
2019-01-09T12:39:13.312Z,613.30
2019-01-09T12:41:40.532Z,633.83
2019-01-09T12:44:10.340Z,567.97
2019-01-09T12:46:39.997Z,592.00
2019-01-09T12:49:10.653Z,578.37
2019-01-09T12:51:40.372Z,613.53
2019-01-09T12:54:10.094Z,614.20
2019-01-09T12:56:39.856Z,576.00
2019-01-09T12:59:09.604Z,625.03
2019-01-09T13:01:39.325Z,601.77
2019-01-09T13:04:09.201Z,561.67
2019-01-09T13:06:38.868Z,598.50
2019-01-09T13:09:10.293Z,631.00
2019-01-09T13:11:39.975Z,623.40
2019-01-09T13:14:09.657Z,588.63
2019-01-09T13:16:47.489Z,571.20
2019-01-09T13:19:11.709Z,525.50
2019-01-09T13:21:41.509Z,514.97
2019-01-09T13:24:11.213Z,604.63
2019-01-09T13:26:40.869Z,581.80
2019-01-09T13:29:10.787Z,581.30
2019-01-09T13:31:40.458Z,568.90
2019-01-09T13:34:10.130Z,576.47
2019-01-09T13:36:39.884Z,575.13
2019-01-09T13:39:10.444Z,574.90
2019-01-09T13:41:40.152Z,567.20
2019-01-09T13:44:09.872Z,586.90
2019-01-09T13:46:39.559Z,583.30
2019-01-09T13:49:09.348Z,568.03
2019-01-09T13:51:39.150Z,554.73
2019-01-09T13:54:08.857Z,502.27
2019-01-09T13:56:38.547Z,555.23
2019-01-09T13:59:08.277Z,504.57
2019-01-09T14:01:38.409Z,514.37
2019-01-09T14:04:08.084Z,515.57
2019-01-09T14:06:37.759Z,545.67
2019-01-09T14:09:09.622Z,542.90
2019-01-09T14:11:39.429Z,537.23
2019-01-09T14:14:09.134Z,487.47
2019-01-09T14:16:38.817Z,525.83
2019-01-09T14:19:08.623Z,516.17
2019-01-09T14:21:38.313Z,469.63
2019-01-09T14:24:08.043Z,541.43
2019-01-09T14:26:37.760Z,514.60
2019-01-09T14:29:07.563Z,562.97
2019-01-09T14:31:37.254Z,560.43
2019-01-09T14:34:07.015Z,541.77
2019-01-09T14:36:36.746Z,557.23
2019-01-09T14:39:08.244Z,558.73
2019-01-09T14:41:37.956Z,532.07
2019-01-09T14:44:07.717Z,533.47
2019-01-09T14:46:37.457Z,541.60
2019-01-09T14:49:07.368Z,528.03
2019-01-09T14:51:43.099Z,525.37
2019-01-09T14:54:08.449Z,545.43
2019-01-09T14:56:38.150Z,507.27
2019-01-09T14:59:07.917Z,495.40
2019-01-09T15:01:37.645Z,495.27
2019-01-09T15:04:08.898Z,524.60
2019-01-09T15:06:38.970Z,545.77
2019-01-09T15:09:09.559Z,504.00
2019-01-09T15:11:39.332Z,511.70
2019-01-09T15:14:09.002Z,488.53
2019-01-09T15:16:38.716Z,528.13
2019-01-09T15:19:08.539Z,525.80
2019-01-09T15:21:38.211Z,495.53
2019-01-09T15:24:08.647Z,513.43
2019-01-09T15:26:38.513Z,511.90
2019-01-09T15:29:08.297Z,498.57
2019-01-09T15:31:38.979Z,502.33
2019-01-09T15:34:08.639Z,484.80
2019-01-09T15:36:38.333Z,471.10
2019-01-09T15:39:09.212Z,459.10
2019-01-09T15:41:38.928Z,486.57
2019-01-09T15:44:08.651Z,486.03
2019-01-09T15:46:38.338Z,487.00
2019-01-09T15:49:08.116Z,457.83
2019-01-09T15:51:37.808Z,493.27
2019-01-09T15:54:07.496Z,490.07
2019-01-09T15:56:37.153Z,476.73
2019-01-09T15:59:08.795Z,476.77
2019-01-09T16:01:38.300Z,476.53
2019-01-09T16:04:07.987Z,489.60
2019-01-09T16:06:37.699Z,465.10
2019-01-09T16:09:08.647Z,483.57
2019-01-09T16:11:38.371Z,460.80
2019-01-09T16:14:08.121Z,473.73
2019-01-09T16:16:37.841Z,487.17
2019-01-09T16:19:07.612Z,494.00
2019-01-09T16:21:37.313Z,460.37
2019-01-09T16:24:07.003Z,466.17
2019-01-09T16:26:36.674Z,447.90
2019-01-09T16:29:06.491Z,296.23
2019-01-09T16:31:38.440Z,336.57
2019-01-09T16:34:08.321Z,260.33
2019-01-09T16:36:38.491Z,250.87
2019-01-09T16:39:10.407Z,229.87
2019-01-09T16:41:40.216Z,282.10
2019-01-09T16:44:10.088Z,221.67
2019-01-09T16:46:39.751Z,216.40
2019-01-09T16:49:09.551Z,212.20
2019-01-09T16:51:39.246Z,203.77
2019-01-09T16:54:09.008Z,189.47
2019-01-09T16:56:38.722Z,192.03
2019-01-09T16:59:08.493Z,181.37
2019-01-09T17:01:38.182Z,174.43
2019-01-09T17:04:08.152Z,173.23
2019-01-09T17:06:37.974Z,180.13
2019-01-09T17:09:08.480Z,176.07
2019-01-09T17:11:38.149Z,183.00
2019-01-09T17:14:07.840Z,177.77
2019-01-09T17:16:37.596Z,163.73
2019-01-09T17:19:07.585Z,157.20
2019-01-09T17:21:37.264Z,158.57
2019-01-09T17:24:06.923Z,157.43
2019-01-09T17:26:36.592Z,162.00
2019-01-09T17:29:06.356Z,155.00
2019-01-09T17:31:36.362Z,151.10
2019-01-09T17:34:06.020Z,155.20
2019-01-09T17:36:35.678Z,151.37
2019-01-09T17:39:08.280Z,148.07
2019-01-09T17:41:38.016Z,146.00
2019-01-09T17:44:07.778Z,139.37
2019-01-09T17:46:37.449Z,140.80
2019-01-09T17:49:07.588Z,134.77
2019-01-09T17:51:37.270Z,126.10
2019-01-09T17:54:06.935Z,113.70
2019-01-09T17:56:36.611Z,115.60
2019-01-09T17:59:06.356Z,115.73
2019-01-09T18:01:36.065Z,94.93
2019-01-09T18:04:05.812Z,92.73
2019-01-09T18:06:35.507Z,91.50
2019-01-09T18:09:08.159Z,77.10
2019-01-09T18:11:37.843Z,75.53
2019-01-09T18:14:07.508Z,67.60
2019-01-09T18:16:37.187Z,76.13
2019-01-09T18:19:07.032Z,74.40
2019-01-09T18:21:36.889Z,71.07
2019-01-09T18:24:06.674Z,66.87
2019-01-09T18:26:37.582Z,61.87
2019-01-09T18:29:07.481Z,64.77
2019-01-09T18:32:27.421Z,62.13
2019-01-09T18:35:23.888Z,54.50
2019-01-09T18:38:32.843Z,53.43
2019-01-09T18:41:26.662Z,46.10
2019-01-09T18:44:40.429Z,46.50
2019-01-09T18:47:56.884Z,48.30
2019-01-09T18:51:19.843Z,51.50
2019-01-09T18:53:52.284Z,62.37
2019-01-09T18:56:41.043Z,66.57
2019-01-09T18:59:11.201Z,65.87
2019-01-09T19:01:40.891Z,51.17
2019-01-09T19:04:10.582Z,62.60
2019-01-09T19:06:40.310Z,51.63
2019-01-09T19:09:11.539Z,49.67
2019-01-09T19:11:50.257Z,35.77
2019-01-09T19:14:12.653Z,48.33
2019-01-09T19:16:42.312Z,48.53
2019-01-09T19:19:11.997Z,42.07
2019-01-09T19:21:41.692Z,41.87
2019-01-09T19:24:11.480Z,46.70
2019-01-09T19:26:41.204Z,43.53
2019-01-09T19:29:13.083Z,38.63
2019-01-09T19:31:42.905Z,41.60
2019-01-09T19:34:12.580Z,36.00
2019-01-09T19:36:42.321Z,33.93
2019-01-09T19:39:12.157Z,31.23
2019-01-09T19:41:41.912Z,36.97
2019-01-09T19:44:11.813Z,33.10
2019-01-09T19:46:41.468Z,32.27
2019-01-09T19:49:11.254Z,32.87
2019-01-09T19:51:40.969Z,31.73
2019-01-09T19:54:10.634Z,33.00
2019-01-09T19:56:40.331Z,28.60
2019-01-09T19:59:10.300Z,25.10
2019-01-09T20:01:40.004Z,26.60
2019-01-09T20:04:09.723Z,26.60
2019-01-09T20:06:39.418Z,20.07
2019-01-09T20:09:10.041Z,24.63
2019-01-09T20:11:39.754Z,18.80
2019-01-09T20:14:09.511Z,25.03
2019-01-09T20:16:39.173Z,21.00
2019-01-09T20:19:08.881Z,22.23
2019-01-09T20:21:38.664Z,19.83
2019-01-09T20:24:08.317Z,21.30
2019-01-09T20:26:38.010Z,19.93
2019-01-09T20:29:07.795Z,20.80
2019-01-09T20:31:37.620Z,21.27
2019-01-09T20:34:07.341Z,17.40
2019-01-09T20:36:56.103Z,19.27
2019-01-09T20:39:26.474Z,17.70
2019-01-09T20:41:56.136Z,19.57
2019-01-09T20:44:26.465Z,17.30
2019-01-09T20:46:56.073Z,16.83
2019-01-09T20:49:26.016Z,15.77
2019-01-09T20:51:56.273Z,17.53
2019-01-09T20:54:25.920Z,17.50
2019-01-09T20:56:55.745Z,15.07
2019-01-09T20:59:25.417Z,14.60
2019-01-09T21:01:55.086Z,12.57
2019-01-09T21:04:24.739Z,14.73
2019-01-09T21:06:54.488Z,14.40
2019-01-09T21:09:24.220Z,11.67
2019-01-09T21:11:54.485Z,14.33
2019-01-09T21:14:24.217Z,14.10
2019-01-09T21:16:53.831Z,12.50
2019-01-09T21:19:23.528Z,10.17
2019-01-09T21:21:53.151Z,7.87
2019-01-09T21:24:22.767Z,10.60
2019-01-09T21:26:52.405Z,9.60
2019-01-09T21:29:22.044Z,8.17
2019-01-09T21:31:51.694Z,9.07
2019-01-09T21:34:21.453Z,10.23
2019-01-09T21:36:51.062Z,8.50
2019-01-09T21:39:20.765Z,10.03
2019-01-09T21:41:53.379Z,12.50
2019-01-09T21:44:22.141Z,9.03
2019-01-09T21:46:51.751Z,7.83
2019-01-09T21:49:22.451Z,7.37
2019-01-09T21:51:52.078Z,7.90
2019-01-09T21:54:21.763Z,6.30
2019-01-09T21:56:51.380Z,8.13
2019-01-09T21:59:23.250Z,7.57
2019-01-09T22:01:52.263Z,7.07
2019-01-09T22:04:21.896Z,7.27
2019-01-09T22:06:51.521Z,8.17
2019-01-09T22:09:21.289Z,6.77
2019-01-09T22:11:50.922Z,6.30
2019-01-09T22:14:20.543Z,7.40
2019-01-09T22:16:50.180Z,6.90
2019-01-09T22:19:19.828Z,5.90
2019-01-09T22:21:50.585Z,5.33
2019-01-09T22:24:20.263Z,5.70
2019-01-09T22:26:50.224Z,4.43
2019-01-09T22:29:19.919Z,4.83
2019-01-09T22:31:49.538Z,6.20
2019-01-09T22:34:19.266Z,5.00
2019-01-09T22:36:48.915Z,3.90
2019-01-09T22:39:18.594Z,5.73
2019-01-09T22:41:48.292Z,4.70
2019-01-09T22:44:17.912Z,3.93
2019-01-09T22:46:47.520Z,6.30
2019-01-09T22:49:17.192Z,4.00
2019-01-09T22:51:47.757Z,3.93
2019-01-09T22:54:17.364Z,3.83
2019-01-09T22:56:46.995Z,3.70
2019-01-09T22:59:16.638Z,4.67
2019-01-09T23:01:46.266Z,3.90
2019-01-09T23:04:15.894Z,4.83
2019-01-09T23:06:45.485Z,3.07
2019-01-09T23:09:15.169Z,4.03
2019-01-09T23:11:44.846Z,3.87
2019-01-09T23:14:14.507Z,3.07
2019-01-09T23:16:44.222Z,4.10
2019-01-09T23:19:13.966Z,2.93
2019-01-09T23:21:43.620Z,2.67
2019-01-09T23:24:13.244Z,3.30
2019-01-09T23:26:42.904Z,2.27
2019-01-09T23:29:12.565Z,2.97
2019-01-09T23:31:42.220Z,2.83
2019-01-09T23:34:11.864Z,2.73
2019-01-09T23:36:41.537Z,2.87
2019-01-09T23:39:11.532Z,2.50
2019-01-09T23:41:41.199Z,2.10
2019-01-09T23:44:10.839Z,2.37
2019-01-09T23:46:40.511Z,3.40
2019-01-09T23:49:10.256Z,2.67
2019-01-09T23:51:39.976Z,2.33
2019-01-09T23:54:09.638Z,3.37
2019-01-09T23:56:39.295Z,2.13
2019-01-09T23:59:09.006Z,1.97
